createdAt,value
2017-12-03T00:12:31.101Z,77.79
2017-12-03T00:33:07.295Z,76.96
2017-12-03T00:53:43.485Z,77.17
2017-12-03T01:14:20.004Z,77.60
2017-12-03T01:34:54.031Z,77.33
2017-12-03T01:55:31.142Z,78.12
2017-12-03T02:16:04.572Z,77.73
2017-12-03T02:36:40.923Z,77.56
2017-12-03T02:57:12.050Z,77.37
2017-12-03T03:17:47.931Z,76.66
2017-12-03T03:38:25.352Z,76.98
2017-12-03T03:58:59.823Z,77.85
2017-12-03T04:19:31.903Z,77.16
2017-12-03T04:58:06.693Z,77.62
2017-12-03T05:18:41.962Z,77.40
2017-12-03T05:39:18.158Z,77.36
2017-12-03T05:59:55.860Z,77.00
2017-12-03T06:20:30.613Z,77.09
2017-12-03T06:41:02.740Z,77.72
2017-12-03T07:01:37.092Z,78.12
2017-12-03T07:22:14.670Z,77.66
2017-12-03T07:42:47.639Z,78.70
2017-12-03T08:03:25.060Z,79.89
2017-12-03T08:23:56.028Z,80.58
2017-12-03T08:44:30.381Z,82.61
2017-12-03T09:05:04.426Z,81.80
2017-12-03T09:25:34.780Z,82.44
2017-12-03T09:46:08.824Z,81.71
2017-12-03T10:06:41.025Z,81.41
2017-12-03T10:27:15.376Z,82.31
2017-12-03T10:47:52.828Z,82.90
2017-12-03T11:08:26.038Z,82.71
2017-12-03T11:28:59.965Z,82.57
2017-12-03T11:49:35.231Z,82.98
2017-12-03T12:10:09.586Z,81.74
2017-12-03T12:30:48.549Z,81.47
2017-12-03T12:51:25.041Z,82.57
2017-12-03T13:11:59.090Z,82.71
2017-12-03T13:32:36.511Z,81.62
2017-12-03T13:53:17.319Z,81.24
2017-12-03T14:13:54.122Z,81.82
2017-12-03T14:34:28.167Z,82.18
2017-12-03T14:55:03.746Z,83.26
2017-12-03T15:15:45.136Z,85.15
2017-12-03T15:36:18.895Z,84.92
2017-12-03T15:56:54.169Z,85.37
2017-12-03T16:17:27.618Z,84.85
2017-12-03T16:37:57.924Z,85.37
2017-12-03T17:16:32.439Z,84.54
2017-12-03T17:37:08.959Z,83.81
2017-12-03T17:57:45.139Z,83.57
2017-12-03T18:18:21.022Z,83.56
2017-12-03T18:38:54.466Z,83.55
2017-12-03T18:59:28.803Z,83.49
2017-12-03T19:20:03.765Z,84.10
2017-12-03T19:40:36.272Z,84.13
2017-12-03T20:01:08.167Z,83.50
2017-12-03T20:21:46.759Z,85.11
2017-12-03T20:42:20.584Z,85.21
2017-12-03T21:02:57.055Z,84.62
2017-12-03T21:23:33.863Z,85.20
2017-12-03T21:44:10.372Z,86.30
2017-12-03T22:04:43.795Z,85.05
2017-12-03T22:25:21.829Z,85.66
2017-12-03T22:46:00.175Z,86.73
2017-12-03T23:06:33.298Z,87.52
2017-12-03T23:27:05.504Z,87.78
2017-12-03T23:47:40.770Z,87.59
